createdAt,value
2019-02-16T00:03:17.702Z,402.17
2019-02-16T00:08:25.723Z,414.83
2019-02-16T00:13:33.029Z,419.47
2019-02-16T00:18:40.847Z,567.50
2019-02-16T00:23:48.167Z,472.67
2019-02-16T00:28:55.555Z,332.32
2019-02-16T00:34:02.957Z,533.00
2019-02-16T00:39:10.382Z,567.73
2019-02-16T00:44:17.974Z,459.47
2019-02-16T00:49:25.394Z,293.10
2019-02-16T00:54:33.078Z,536.57
2019-02-16T00:59:40.384Z,500.53
2019-02-16T01:04:48.101Z,542.73
2019-02-16T01:09:55.644Z,599.33
2019-02-16T01:15:03.017Z,645.80
2019-02-16T01:20:10.410Z,456.87
2019-02-16T01:25:18.025Z,393.97
2019-02-16T01:30:32.381Z,263.73
2019-02-16T01:35:42.481Z,430.10
2019-02-16T01:40:53.713Z,249.83
2019-02-16T01:46:08.646Z,134.37
2019-02-16T01:51:31.419Z,73.80
2019-02-16T01:56:33.064Z,49.80
2019-02-16T02:07:05.309Z,40.98
2019-02-16T02:12:24.309Z,32.97
2019-02-16T02:17:34.967Z,30.90
2019-02-16T02:22:45.569Z,32.83
2019-02-16T02:27:52.829Z,32.40
2019-02-16T02:38:07.460Z,87.75
2019-02-16T02:43:15.040Z,536.37
2019-02-16T02:48:23.571Z,231.97
2019-02-16T02:53:31.828Z,110.17
2019-02-16T02:58:39.586Z,48.98
2019-02-16T03:08:53.949Z,25.57
2019-02-16T03:14:01.396Z,25.17
2019-02-16T03:19:20.588Z,19.48
2019-02-16T03:24:28.421Z,19.60
2019-02-16T03:29:36.007Z,19.63
2019-02-16T03:39:50.610Z,16.17
2019-02-16T03:44:58.015Z,16.80
2019-02-16T03:50:05.391Z,16.17
2019-02-16T03:55:12.926Z,16.42
2019-02-16T04:00:20.960Z,16.40
2019-02-16T04:05:28.398Z,16.43
2019-02-16T04:10:36.337Z,15.20
2019-02-16T04:15:44.596Z,14.63
2019-02-16T09:28:37.399Z,13.60
2019-02-16T09:34:29.413Z,13.87
2019-02-16T09:39:47.671Z,14.53
2019-02-16T09:45:12.986Z,14.23
2019-02-16T09:50:22.032Z,13.97
2019-02-16T09:55:34.238Z,13.47
2019-02-16T10:00:44.515Z,14.13
2019-02-16T10:06:34.127Z,14.73
2019-02-16T10:11:59.372Z,14.87
2019-02-16T10:17:06.537Z,15.43
2019-02-16T10:23:05.546Z,14.25
2019-02-16T10:28:12.754Z,14.07
2019-02-16T10:33:24.052Z,14.57
2019-02-16T10:38:48.372Z,16.17
2019-02-16T10:44:47.368Z,15.38
2019-02-16T10:55:09.372Z,15.83
2019-02-16T11:11:04.292Z,14.78
2019-02-16T11:16:53.757Z,14.80
2019-02-16T11:22:12.067Z,16.67
2019-02-16T11:27:23.675Z,12.97
2019-02-16T11:33:25.864Z,12.73
2019-02-16T11:38:54.050Z,11.38
2019-02-16T11:44:13.371Z,11.65
2019-02-16T11:49:35.586Z,9.73
2019-02-16T11:55:00.376Z,9.15
2019-02-16T12:00:25.387Z,9.53
2019-02-16T12:10:57.643Z,9.83
2019-02-16T12:16:06.771Z,9.43
2019-02-16T12:21:21.237Z,10.57
2019-02-16T12:26:30.384Z,9.15
2019-02-16T12:31:42.388Z,8.40
2019-02-16T12:36:52.475Z,7.87
2019-02-16T12:42:04.483Z,7.70
2019-02-16T12:47:16.729Z,8.27
2019-02-16T12:52:34.961Z,10.25
2019-02-16T12:57:46.394Z,7.97
2019-02-16T13:02:58.385Z,11.30
2019-02-16T13:08:12.638Z,8.08
2019-02-16T13:13:34.065Z,6.60
2019-02-16T13:23:57.473Z,8.63
2019-02-16T13:29:55.976Z,7.30
2019-02-16T13:35:05.028Z,6.40
2019-02-16T13:40:14.062Z,7.10
2019-02-16T13:46:12.481Z,5.93
2019-02-16T13:51:36.765Z,6.57
2019-02-16T13:57:00.960Z,7.33
2019-02-16T14:02:12.676Z,7.90
2019-02-16T14:07:20.890Z,6.40
2019-02-16T14:13:19.395Z,8.18
2019-02-16T14:18:27.011Z,5.70
2019-02-16T14:23:34.388Z,7.28
2019-02-16T14:28:41.913Z,6.63
2019-02-16T14:33:49.379Z,5.65
2019-02-16T14:39:01.027Z,9.40
2019-02-16T14:44:08.430Z,5.93
2019-02-16T14:49:15.827Z,6.47
2019-02-16T14:54:23.187Z,6.15
2019-02-16T14:59:30.740Z,6.75
2019-02-16T15:04:38.054Z,7.07
2019-02-16T15:09:45.221Z,6.58
2019-02-16T15:14:52.664Z,6.47
2019-02-16T15:25:18.433Z,6.47
2019-02-16T15:30:25.826Z,8.73
2019-02-16T15:35:33.146Z,37.53
2019-02-16T15:40:40.533Z,31.73
2019-02-16T15:45:48.043Z,137.80
2019-02-16T15:50:56.295Z,217.60
2019-02-16T15:56:10.640Z,193.52
2019-02-16T16:01:15.572Z,152.47
2019-02-16T16:06:22.882Z,206.60
2019-02-16T16:11:42.170Z,46.95
2019-02-16T16:16:51.108Z,173.82
2019-02-16T16:22:52.674Z,126.57
2019-02-16T16:28:07.766Z,198.05
2019-02-16T16:33:30.122Z,163.32
2019-02-16T16:39:32.424Z,155.50
2019-02-16T16:45:38.006Z,98.37
2019-02-16T16:51:45.987Z,32.55
2019-02-16T16:57:12.506Z,19.07
2019-02-16T17:03:20.684Z,17.40
2019-02-16T17:09:27.675Z,125.17
2019-02-16T17:14:45.628Z,51.65
2019-02-16T17:20:35.384Z,43.80
2019-02-16T17:37:07.679Z,197.68
2019-02-16T17:42:14.775Z,132.45
2019-02-16T17:48:04.072Z,52.37
2019-02-16T17:53:22.586Z,35.57
2019-02-16T17:58:29.836Z,115.52
2019-02-16T18:03:44.370Z,492.87
2019-02-16T18:09:27.390Z,582.80
2019-02-16T18:14:45.694Z,513.50
2019-02-16T18:19:54.982Z,576.03
2019-02-16T18:25:08.087Z,770.40
2019-02-16T18:30:23.065Z,469.13
2019-02-16T18:35:30.370Z,356.67
2019-02-16T18:40:52.826Z,173.65
2019-02-16T18:46:48.034Z,105.72
2019-02-16T18:52:12.490Z,66.22
2019-02-16T19:02:28.367Z,224.77
2019-02-16T19:07:39.683Z,126.22
2019-02-16T19:12:49.990Z,79.85
2019-02-16T19:17:57.056Z,66.77
2019-02-16T19:23:08.662Z,44.20
2019-02-16T19:29:22.870Z,48.48
2019-02-16T19:34:34.643Z,270.73
2019-02-16T19:39:44.401Z,294.67
2019-02-16T19:50:30.440Z,297.07
2019-02-16T19:56:24.378Z,134.53
2019-02-16T20:01:34.693Z,64.10
2019-02-16T20:07:30.875Z,57.48
2019-02-16T20:12:38.047Z,40.67
2019-02-16T20:18:03.397Z,36.73
2019-02-16T20:23:46.614Z,440.20
2019-02-16T20:29:17.886Z,483.07
2019-02-16T20:34:43.204Z,488.27
2019-02-16T20:45:21.478Z,495.90
2019-02-16T20:50:31.961Z,478.23
2019-02-16T20:55:47.032Z,295.30
2019-02-16T21:00:59.045Z,413.40
2019-02-16T21:06:24.382Z,398.32
2019-02-16T21:12:26.374Z,381.90
2019-02-16T21:17:44.621Z,378.92
2019-02-16T21:23:04.803Z,337.57
2019-02-16T21:28:37.605Z,142.00
2019-02-16T21:33:50.379Z,270.17
2019-02-16T21:39:03.218Z,395.67
2019-02-16T21:44:26.821Z,596.87
2019-02-16T21:49:48.376Z,542.63
2019-02-16T21:55:00.803Z,412.95
2019-02-16T22:00:12.930Z,378.10
2019-02-16T22:05:21.969Z,459.40
2019-02-16T22:10:46.883Z,364.70
2019-02-16T22:15:57.590Z,481.02
2019-02-16T22:26:11.874Z,928.88
2019-02-16T22:31:19.363Z,886.95
2019-02-16T22:41:33.569Z,868.50
2019-02-16T22:46:40.966Z,690.27
2019-02-16T22:51:48.378Z,622.70
2019-02-16T22:56:55.981Z,560.60
2019-02-16T23:02:03.387Z,560.77
2019-02-16T23:07:10.995Z,488.10
2019-02-16T23:17:25.699Z,236.63
2019-02-16T23:22:33.615Z,151.73
2019-02-16T23:27:40.916Z,99.37
2019-02-16T23:32:48.386Z,70.70
2019-02-16T23:37:55.931Z,65.87
2019-02-16T23:43:02.933Z,60.10
2019-02-16T23:48:10.386Z,74.10
2019-02-16T23:53:18.763Z,129.45
2019-02-16T23:58:26.091Z,326.40
